Time;durP1;ratioP1;P1;durP2;ratioP2;P2;SDS_P1;SDS_P2;PMS_P1;PMS_P2;Temp;Humidity;BMP_temperature;BMP_pressure;BME280_temperature;BME280_humidity;BME280_pressure;Samples;Min_cycle;Max_cycle;Signal;HPM_P1;HPM_P2
2021/06/07 00:02:07;;;;;;;5.50;1.10;;;;;;;;;;4972019;28;20030;-61
2021/06/07 00:04:34;;;;;;;9.57;1.20;;;;;;;;;;4956763;28;20093;-53
2021/06/07 00:07:01;;;;;;;26.50;1.73;;;;;;;;;;4972352;28;20435;-46
2021/06/07 00:09:29;;;;;;;7.75;1.27;;;;;;;;;;4970714;28;20022;-44
2021/06/07 00:11:59;;;;;;;5.55;1.30;;;;;;;;;;4971399;28;20069;-43
2021/06/07 00:14:27;;;;;;;5.38;0.95;;;;;;;;;;4972073;28;20037;-46
2021/06/07 00:16:55;;;;;;;8.43;1.33;;;;;;;;;;4971509;28;20031;-41
2021/06/07 00:19:22;;;;;;;11.40;1.55;;;;;;;;;;4956211;28;20023;-43
2021/06/07 00:21:49;;;;;;;9.38;2.90;;;;;;;;;;4975472;28;20019;-44
2021/06/07 00:24:17;;;;;;;8.27;1.08;;;;;;;;;;4976015;28;20407;-45
2021/06/07 00:26:45;;;;;;;6.20;1.00;;;;;;;;;;4975671;28;20479;-43
2021/06/07 00:29:12;;;;;;;9.93;0.90;;;;;;;;;;4975934;28;20434;-45
2021/06/07 00:31:40;;;;;;;3.40;1.17;;;;;;;;;;4975587;28;20104;-44
2021/06/07 00:34:07;;;;;;;8.00;1.17;;;;;;;;;;4975283;28;20031;-45
2021/06/07 00:36:35;;;;;;;10.70;1.23;;;;;;;;;;4974446;28;20101;-42
2021/06/07 00:39:03;;;;;;;2.22;0.90;;;;;;;;;;4974824;28;20011;-43
2021/06/07 00:41:30;;;;;;;6.97;1.02;;;;;;;;;;4974849;28;20485;-43
2021/06/07 00:43:58;;;;;;;6.82;1.05;;;;;;;;;;4975578;28;20023;-44
2021/06/07 00:46:26;;;;;;;9.68;1.10;;;;;;;;;;4975941;28;20360;-44
2021/06/07 00:48:53;;;;;;;3.08;0.95;;;;;;;;;;4975192;28;20026;-43
2021/06/07 00:51:20;;;;;;;5.97;0.90;;;;;;;;;;4975828;28;20479;-42
2021/06/07 00:53:47;;;;;;;5.07;1.20;;;;;;;;;;4975079;28;20505;-44
2021/06/07 00:56:14;;;;;;;4.63;1.05;;;;;;;;;;4975171;28;20117;-43
2021/06/07 00:58:47;;;;;;;2.60;0.90;;;;;;;;;;4975062;28;20019;-44
2021/06/07 01:01:15;;;;;;;4.82;0.88;;;;;;;;;;4976008;28;20027;-54
2021/06/07 01:03:43;;;;;;;8.65;1.15;;;;;;;;;;4975229;28;20019;-50
2021/06/07 01:06:10;;;;;;;4.80;1.00;;;;;;;;;;4975175;28;20033;-48
2021/06/07 01:08:38;;;;;;;8.27;1.15;;;;;;;;;;4974043;28;20033;-44
2021/06/07 01:11:05;;;;;;;5.50;1.15;;;;;;;;;;4974290;28;20050;-51
2021/06/07 01:13:33;;;;;;;5.53;1.10;;;;;;;;;;4974091;28;20041;-44
2021/06/07 01:16:00;;;;;;;7.45;1.30;;;;;;;;;;4975020;28;20050;-45
2021/06/07 01:18:30;;;;;;;12.05;1.80;;;;;;;;;;4969566;28;20049;-46
2021/06/07 01:20:59;;;;;;;6.40;1.48;;;;;;;;;;4972526;28;20021;-46
2021/06/07 01:23:26;;;;;;;7.00;1.85;;;;;;;;;;4969289;28;20510;-46
2021/06/07 01:25:53;;;;;;;8.05;2.00;;;;;;;;;;4972588;28;20090;-45
2021/06/07 01:28:20;;;;;;;12.30;2.20;;;;;;;;;;4964288;28;20031;-46
2021/06/07 01:30:49;;;;;;;10.57;1.80;;;;;;;;;;4956922;28;20042;-46
2021/06/07 01:33:18;;;;;;;7.68;2.00;;;;;;;;;;4965811;28;20129;-48
2021/06/07 01:35:46;;;;;;;7.10;2.50;;;;;;;;;;4967777;28;20100;-45
2021/06/07 01:38:13;;;;;;;8.35;1.98;;;;;;;;;;4957232;28;20098;-46
2021/06/07 01:40:41;;;;;;;8.27;1.85;;;;;;;;;;4959623;28;20023;-46
2021/06/07 01:43:11;;;;;;;6.43;1.80;;;;;;;;;;4960882;28;20055;-46
2021/06/07 01:45:42;;;;;;;6.35;1.70;;;;;;;;;;4955751;28;20054;-45
2021/06/07 01:48:11;;;;;;;8.73;1.80;;;;;;;;;;4957035;28;20126;-45
2021/06/07 01:50:39;;;;;;;10.32;1.95;;;;;;;;;;4957381;28;20022;-44
2021/06/07 01:53:07;;;;;;;5.57;1.98;;;;;;;;;;4958898;28;20081;-44
2021/06/07 01:55:35;;;;;;;6.60;1.48;;;;;;;;;;4956197;28;20102;-44
2021/06/07 01:58:02;;;;;;;4.03;1.58;;;;;;;;;;4959066;28;20050;-44
2021/06/07 02:00:36;;;;;;;13.57;1.63;;;;;;;;;;4956238;28;20022;-47
2021/06/07 02:03:03;;;;;;;10.80;1.90;;;;;;;;;;4966417;28;20109;-45
2021/06/07 02:05:31;;;;;;;7.63;1.20;;;;;;;;;;4972653;28;20030;-44
2021/06/07 02:08:00;;;;;;;5.28;1.65;;;;;;;;;;4972968;28;20074;-44
2021/06/07 02:10:31;;;;;;;4.25;1.15;;;;;;;;;;4974651;28;20081;-44
2021/06/07 02:12:59;;;;;;;6.82;1.67;;;;;;;;;;4974901;28;20039;-45
2021/06/07 02:15:26;;;;;;;4.95;0.90;;;;;;;;;;4974877;28;20057;-45
2021/06/07 02:17:53;;;;;;;7.20;1.15;;;;;;;;;;4974552;28;20129;-45
2021/06/07 02:20:23;;;;;;;6.40;1.30;;;;;;;;;;4974482;28;20506;-45
2021/06/07 02:22:50;;;;;;;5.93;1.63;;;;;;;;;;4974673;28;20110;-46
2021/06/07 02:25:21;;;;;;;7.32;1.48;;;;;;;;;;4974369;28;20043;-45
2021/06/07 02:27:48;;;;;;;5.82;1.08;;;;;;;;;;4974644;28;20110;-43
2021/06/07 02:30:18;;;;;;;4.05;0.90;;;;;;;;;;4974439;28;20522;-44
2021/06/07 02:32:45;;;;;;;3.03;0.85;;;;;;;;;;4974115;28;20035;-45
2021/06/07 02:35:14;;;;;;;3.60;1.10;;;;;;;;;;4974428;28;20027;-45
2021/06/07 02:37:41;;;;;;;4.05;1.00;;;;;;;;;;4974520;28;20101;-46
2021/06/07 02:40:09;;;;;;;3.05;0.80;;;;;;;;;;4974278;28;20023;-47
2021/06/07 02:42:38;;;;;;;5.75;0.90;;;;;;;;;;4973382;28;20069;-45
2021/06/07 02:45:09;;;;;;;6.03;1.00;;;;;;;;;;4973417;28;20022;-45
2021/06/07 02:47:36;;;;;;;3.07;1.10;;;;;;;;;;4973805;28;20023;-44
2021/06/07 02:50:05;;;;;;;5.25;0.80;;;;;;;;;;4973621;28;20483;-45
2021/06/07 02:52:32;;;;;;;5.15;0.90;;;;;;;;;;4973867;28;20085;-43
2021/06/07 02:54:59;;;;;;;2.88;0.80;;;;;;;;;;4973821;28;20015;-45
2021/06/07 02:57:26;;;;;;;3.45;0.90;;;;;;;;;;4973679;28;20123;-45
2021/06/07 02:59:53;;;;;;;6.30;0.93;;;;;;;;;;4972786;28;20019;-47
2021/06/07 03:02:23;;;;;;;5.93;0.90;;;;;;;;;;4969621;28;20018;-43
2021/06/07 03:04:50;;;;;;;3.53;0.90;;;;;;;;;;4993086;28;20022;-44
2021/06/07 03:07:17;;;;;;;3.90;0.80;;;;;;;;;;4992433;28;20026;-44
2021/06/07 03:09:44;;;;;;;6.50;0.90;;;;;;;;;;4992792;28;20023;-44
2021/06/07 03:12:11;;;;;;;5.05;0.80;;;;;;;;;;4992382;28;20109;-43
2021/06/07 03:14:42;;;;;;;3.78;0.77;;;;;;;;;;4992943;28;20390;-44
2021/06/07 03:17:09;;;;;;;3.30;0.93;;;;;;;;;;4982787;28;20023;-44
2021/06/07 03:19:36;;;;;;;3.10;0.85;;;;;;;;;;4972739;28;20037;-44
2021/06/07 03:22:03;;;;;;;5.90;0.77;;;;;;;;;;4972196;28;20105;-45
2021/06/07 03:24:30;;;;;;;2.30;0.60;;;;;;;;;;4970255;28;20495;-44
2021/06/07 03:26:57;;;;;;;4.97;1.05;;;;;;;;;;4972515;28;20031;-45
2021/06/07 03:29:25;;;;;;;3.65;0.90;;;;;;;;;;4972285;28;20023;-43
2021/06/07 03:31:52;;;;;;;3.40;0.70;;;;;;;;;;4972291;28;20034;-44
2021/06/07 03:34:19;;;;;;;3.28;0.70;;;;;;;;;;4973262;28;20038;-43
2021/06/07 03:36:46;;;;;;;3.15;0.80;;;;;;;;;;4972701;28;20061;-44
2021/06/07 03:39:13;;;;;;;4.38;1.00;;;;;;;;;;4972961;28;20089;-45
2021/06/07 03:41:40;;;;;;;6.40;0.93;;;;;;;;;;4972874;28;20031;-43
2021/06/07 03:44:07;;;;;;;1.85;0.73;;;;;;;;;;4972886;28;20018;-45
2021/06/07 03:46:34;;;;;;;3.90;0.80;;;;;;;;;;4972949;28;20475;-45
2021/06/07 03:49:01;;;;;;;4.13;0.68;;;;;;;;;;4972685;28;20025;-44
2021/06/07 03:51:28;;;;;;;3.05;0.77;;;;;;;;;;4972758;28;20065;-44
2021/06/07 03:53:55;;;;;;;4.95;0.60;;;;;;;;;;4972137;28;20034;-45
2021/06/07 03:56:22;;;;;;;5.07;0.73;;;;;;;;;;4973053;28;20031;-45
2021/06/07 03:58:49;;;;;;;1.73;0.68;;;;;;;;;;4972422;28;20026;-45
2021/06/07 04:01:16;;;;;;;2.85;0.80;;;;;;;;;;4972525;28;20045;-43
2021/06/07 04:03:43;;;;;;;4.47;0.70;;;;;;;;;;4972462;28;20489;-45
2021/06/07 04:06:12;;;;;;;2.13;0.60;;;;;;;;;;4972875;28;20019;-44
2021/06/07 04:08:39;;;;;;;5.00;0.70;;;;;;;;;;4972439;28;20057;-44
2021/06/07 04:11:06;;;;;;;6.28;0.80;;;;;;;;;;4973016;28;20444;-44
2021/06/07 04:13:33;;;;;;;2.97;0.60;;;;;;;;;;4972193;28;20537;-45
2021/06/07 04:16:00;;;;;;;2.63;0.40;;;;;;;;;;4972801;28;20034;-45
2021/06/07 04:18:27;;;;;;;1.83;0.70;;;;;;;;;;4955435;28;20734;-45
2021/06/07 04:20:54;;;;;;;7.22;0.55;;;;;;;;;;4972367;28;20035;-43
2021/06/07 04:23:23;;;;;;;3.20;0.70;;;;;;;;;;4972277;28;20087;-43
2021/06/07 04:25:50;;;;;;;4.45;0.68;;;;;;;;;;4972866;28;20043;-46
2021/06/07 04:28:17;;;;;;;2.35;0.82;;;;;;;;;;4972482;28;20034;-44
2021/06/07 04:30:44;;;;;;;4.20;0.60;;;;;;;;;;4971965;28;20023;-44
2021/06/07 04:33:11;;;;;;;2.10;0.68;;;;;;;;;;4972691;28;20023;-44
2021/06/07 04:35:38;;;;;;;3.58;0.60;;;;;;;;;;4971957;28;20076;-44
2021/06/07 04:38:06;;;;;;;1.83;0.50;;;;;;;;;;4972648;28;20015;-44
2021/06/07 04:40:35;;;;;;;4.07;0.60;;;;;;;;;;4971992;28;20030;-43
2021/06/07 04:43:06;;;;;;;1.65;0.60;;;;;;;;;;4972443;28;20027;-43
2021/06/07 04:45:33;;;;;;;1.52;0.63;;;;;;;;;;4972260;28;20057;-45
2021/06/07 04:48:00;;;;;;;3.45;0.70;;;;;;;;;;4972555;28;20047;-45
2021/06/07 04:50:28;;;;;;;2.35;0.60;;;;;;;;;;4971963;28;20026;-45
2021/06/07 04:53:01;;;;;;;1.60;0.60;;;;;;;;;;4972206;28;20031;-45
2021/06/07 04:55:34;;;;;;;1.55;0.52;;;;;;;;;;4972006;28;20491;-44
2021/06/07 04:58:06;;;;;;;1.38;0.40;;;;;;;;;;4972542;28;20035;-43
2021/06/07 05:00:33;;;;;;;4.18;0.60;;;;;;;;;;4971996;28;20030;-45
2021/06/07 05:03:00;;;;;;;1.45;0.50;;;;;;;;;;4972284;28;20043;-43
2021/06/07 05:05:27;;;;;;;1.73;0.45;;;;;;;;;;4956277;28;20089;-44
2021/06/07 05:07:54;;;;;;;3.72;0.70;;;;;;;;;;4975923;28;20150;-45
2021/06/07 05:10:22;;;;;;;2.35;0.50;;;;;;;;;;4975169;28;20025;-44
2021/06/07 05:12:49;;;;;;;4.55;0.60;;;;;;;;;;4975466;28;20030;-45
2021/06/07 05:15:16;;;;;;;2.28;0.50;;;;;;;;;;4975839;28;20023;-44
2021/06/07 05:17:44;;;;;;;2.55;0.55;;;;;;;;;;4975244;28;20073;-43
2021/06/07 05:20:13;;;;;;;2.00;0.52;;;;;;;;;;4975469;28;20027;-45
2021/06/07 05:22:40;;;;;;;1.90;0.50;;;;;;;;;;4974737;28;20399;-46
2021/06/07 05:25:07;;;;;;;1.60;0.57;;;;;;;;;;4975109;28;20480;-43
2021/06/07 05:27:35;;;;;;;1.75;0.60;;;;;;;;;;4957570;28;20033;-43
2021/06/07 05:30:03;;;;;;;1.95;0.70;;;;;;;;;;4975534;28;20025;-44
2021/06/07 05:32:30;;;;;;;2.25;0.60;;;;;;;;;;4974508;28;20026;-44
2021/06/07 05:34:57;;;;;;;1.23;0.50;;;;;;;;;;4975437;28;20109;-44
2021/06/07 05:37:24;;;;;;;1.17;0.40;;;;;;;;;;4974776;28;20356;-43
2021/06/07 05:39:51;;;;;;;2.33;0.50;;;;;;;;;;4974582;28;20015;-44
2021/06/07 05:42:19;;;;;;;0.88;0.45;;;;;;;;;;4974208;28;20026;-44
2021/06/07 05:44:46;;;;;;;1.38;0.50;;;;;;;;;;4975268;28;20030;-43
2021/06/07 05:47:13;;;;;;;1.27;0.50;;;;;;;;;;4974796;28;20022;-44
2021/06/07 05:49:40;;;;;;;1.80;0.60;;;;;;;;;;4975057;28;20138;-43
2021/06/07 05:52:08;;;;;;;0.50;0.40;;;;;;;;;;4974365;28;20078;-43
2021/06/07 05:54:36;;;;;;;1.40;0.40;;;;;;;;;;4975065;28;20042;-44
2021/06/07 05:57:03;;;;;;;1.25;0.65;;;;;;;;;;4957719;28;20094;-44
2021/06/07 05:59:30;;;;;;;0.80;0.40;;;;;;;;;;4974377;28;20031;-44
2021/06/07 06:01:57;;;;;;;1.45;0.50;;;;;;;;;;4974655;28;20022;-43
2021/06/07 06:04:24;;;;;;;1.55;0.82;;;;;;;;;;4974375;28;20034;-43
2021/06/07 06:06:52;;;;;;;2.28;0.65;;;;;;;;;;4974841;28;20026;-44
2021/06/07 06:09:19;;;;;;;3.80;0.60;;;;;;;;;;4974239;28;20054;-43
2021/06/07 06:11:46;;;;;;;1.83;0.30;;;;;;;;;;4957075;28;20504;-43
2021/06/07 06:14:13;;;;;;;1.45;0.50;;;;;;;;;;4974020;28;20034;-44
2021/06/07 06:16:40;;;;;;;1.50;0.50;;;;;;;;;;4974676;28;20417;-45
2021/06/07 06:19:10;;;;;;;1.80;0.47;;;;;;;;;;4973991;28;20017;-43
2021/06/07 06:21:39;;;;;;;0.50;0.32;;;;;;;;;;4974220;28;20079;-44
2021/06/07 06:24:07;;;;;;;1.90;0.50;;;;;;;;;;4973575;28;20540;-43
2021/06/07 06:26:34;;;;;;;0.70;0.30;;;;;;;;;;4974425;28;20085;-43
2021/06/07 06:29:02;;;;;;;2.22;0.52;;;;;;;;;;4973890;28;20023;-43
2021/06/07 06:31:29;;;;;;;2.70;0.65;;;;;;;;;;4974363;28;20018;-43
2021/06/07 06:33:56;;;;;;;0.50;0.43;;;;;;;;;;4973367;28;20034;-43
2021/06/07 06:36:23;;;;;;;1.27;0.50;;;;;;;;;;4974111;28;20098;-43
2021/06/07 06:38:50;;;;;;;1.25;0.50;;;;;;;;;;4974192;28;20033;-44
2021/06/07 06:41:17;;;;;;;2.60;0.80;;;;;;;;;;4973542;28;20024;-44
2021/06/07 06:43:44;;;;;;;1.02;0.40;;;;;;;;;;4973643;28;20093;-43
2021/06/07 06:46:11;;;;;;;1.33;0.55;;;;;;;;;;4973836;28;20472;-44
2021/06/07 06:48:38;;;;;;;1.50;0.47;;;;;;;;;;4974049;28;20030;-46
2021/06/07 06:51:06;;;;;;;3.17;0.55;;;;;;;;;;4973457;28;20026;-46
2021/06/07 06:53:33;;;;;;;0.93;0.40;;;;;;;;;;4973635;28;20030;-43
2021/06/07 06:56:00;;;;;;;2.22;0.30;;;;;;;;;;4973540;28;20031;-46
2021/06/07 06:58:27;;;;;;;1.13;0.43;;;;;;;;;;4974021;28;20383;-45
2021/06/07 07:00:54;;;;;;;2.35;0.50;;;;;;;;;;4973426;28;20018;-45
2021/06/07 07:03:21;;;;;;;1.80;0.50;;;;;;;;;;4973557;28;20044;-45
2021/06/07 07:05:49;;;;;;;1.48;0.50;;;;;;;;;;4972849;28;20167;-45
2021/06/07 07:08:17;;;;;;;0.85;0.38;;;;;;;;;;4973647;28;20027;-45
2021/06/07 07:10:47;;;;;;;1.00;0.40;;;;;;;;;;4973167;28;20023;-45
2021/06/07 07:13:14;;;;;;;1.52;0.70;;;;;;;;;;4973299;28;20035;-44
2021/06/07 07:15:41;;;;;;;2.17;0.50;;;;;;;;;;4973079;28;20049;-43
2021/06/07 07:18:13;;;;;;;1.25;0.40;;;;;;;;;;4973612;28;20030;-45
2021/06/07 07:20:41;;;;;;;1.17;0.60;;;;;;;;;;4973337;28;20014;-44
2021/06/07 07:23:09;;;;;;;2.25;0.43;;;;;;;;;;4972394;28;20033;-45
2021/06/07 07:25:36;;;;;;;0.85;0.40;;;;;;;;;;4973298;28;20042;-44
2021/06/07 07:28:05;;;;;;;0.80;0.40;;;;;;;;;;4972441;28;20027;-43
2021/06/07 07:30:33;;;;;;;3.53;0.38;;;;;;;;;;4973243;28;20015;-45
2021/06/07 07:33:00;;;;;;;2.28;0.47;;;;;;;;;;4972610;28;20043;-43
2021/06/07 07:35:27;;;;;;;0.50;0.40;;;;;;;;;;4973282;28;20057;-45
2021/06/07 07:37:54;;;;;;;0.85;0.40;;;;;;;;;;4972748;28;20027;-46
2021/06/07 07:40:23;;;;;;;1.08;0.40;;;;;;;;;;4973317;28;20081;-45
2021/06/07 07:42:51;;;;;;;3.08;0.38;;;;;;;;;;4972646;28;20015;-45
2021/06/07 07:45:19;;;;;;;0.52;0.32;;;;;;;;;;4972984;28;20030;-45
2021/06/07 07:47:47;;;;;;;1.25;0.50;;;;;;;;;;4972564;28;20751;-44
2021/06/07 07:50:17;;;;;;;2.63;0.70;;;;;;;;;;4973338;28;20069;-45
2021/06/07 07:52:44;;;;;;;0.35;0.30;;;;;;;;;;4972552;28;20027;-45
2021/06/07 07:55:12;;;;;;;2.28;0.30;;;;;;;;;;4972794;28;20033;-44
2021/06/07 07:57:41;;;;;;;0.80;0.40;;;;;;;;;;4972560;28;20070;-43
2021/06/07 08:00:09;;;;;;;1.10;0.47;;;;;;;;;;4972851;28;20058;-44
2021/06/07 08:02:36;;;;;;;0.50;0.30;;;;;;;;;;4972146;28;20058;-44
2021/06/07 08:05:03;;;;;;;1.95;0.30;;;;;;;;;;4972752;28;20443;-46
2021/06/07 08:07:30;;;;;;;0.60;0.43;;;;;;;;;;4972749;28;20081;-45
2021/06/07 08:09:57;;;;;;;1.85;0.70;;;;;;;;;;4972466;28;20050;-46
2021/06/07 08:12:25;;;;;;;0.70;0.40;;;;;;;;;;4973056;28;20059;-45
2021/06/07 08:14:51;;;;;;;0.70;0.40;;;;;;;;;;4972107;28;20043;-45
2021/06/07 08:17:18;;;;;;;1.50;0.55;;;;;;;;;;4972675;28;20379;-43
2021/06/07 08:19:45;;;;;;;0.85;0.38;;;;;;;;;;4972321;28;20403;-44
2021/06/07 08:22:13;;;;;;;1.77;0.35;;;;;;;;;;4972808;28;20026;-44
2021/06/07 08:24:40;;;;;;;2.35;0.60;;;;;;;;;;4971821;28;20053;-44
2021/06/07 08:27:07;;;;;;;1.33;0.40;;;;;;;;;;4972795;28;20031;-44
2021/06/07 08:29:34;;;;;;;1.38;0.50;;;;;;;;;;4972227;28;20023;-44
2021/06/07 08:32:01;;;;;;;1.40;0.40;;;;;;;;;;4972531;28;20030;-45
2021/06/07 08:34:28;;;;;;;0.35;0.30;;;;;;;;;;4971927;28;20491;-46
2021/06/07 08:36:55;;;;;;;1.90;0.50;;;;;;;;;;4972850;28;20031;-43
2021/06/07 08:39:22;;;;;;;0.88;0.40;;;;;;;;;;4972112;28;20034;-43
2021/06/07 08:41:50;;;;;;;2.28;0.70;;;;;;;;;;4976108;28;20037;-44
2021/06/07 08:44:18;;;;;;;1.23;0.40;;;;;;;;;;4975985;28;20027;-42
2021/06/07 08:46:46;;;;;;;0.93;0.35;;;;;;;;;;4975839;28;20443;-45
2021/06/07 08:49:13;;;;;;;1.05;0.40;;;;;;;;;;4976241;28;20015;-44
2021/06/07 08:51:40;;;;;;;0.77;0.40;;;;;;;;;;4975805;28;20026;-43
2021/06/07 08:54:08;;;;;;;0.60;0.40;;;;;;;;;;4976048;28;20070;-43
2021/06/07 08:56:35;;;;;;;1.10;0.50;;;;;;;;;;4975443;28;20561;-44
2021/06/07 08:59:02;;;;;;;1.17;0.35;;;;;;;;;;4976126;28;20026;-45
2021/06/07 09:01:29;;;;;;;0.80;0.40;;;;;;;;;;4975141;28;20078;-43
2021/06/07 09:04:08;;;;;;;1.45;1.00;;;;;;;;;;4975751;28;20054;-45
2021/06/07 09:06:39;;;;;;;1.55;0.40;;;;;;;;;;4975287;28;20201;-44
2021/06/07 09:09:07;;;;;;;0.50;0.30;;;;;;;;;;4976031;28;20022;-43
2021/06/07 09:12:08;;;;;;;0.75;0.30;;;;;;;;;;4975119;28;20065;-43
2021/06/07 09:14:40;;;;;;;0.73;0.50;;;;;;;;;;4958605;28;20082;-44
2021/06/07 09:17:20;;;;;;;1.85;0.30;;;;;;;;;;4975304;28;20019;-44
2021/06/07 09:19:47;;;;;;;0.50;0.30;;;;;;;;;;4975429;28;20085;-45
2021/06/07 09:22:21;;;;;;;0.77;0.30;;;;;;;;;;4975104;28;20038;-44
2021/06/07 09:25:08;;;;;;;0.68;0.30;;;;;;;;;;4975265;28;20054;-43
2021/06/07 09:27:36;;;;;;;0.50;0.30;;;;;;;;;;4975045;28;20022;-43
2021/06/07 09:30:22;;;;;;;3.05;0.40;;;;;;;;;;4975303;28;20112;-44
2021/06/07 09:32:49;;;;;;;0.45;0.30;;;;;;;;;;4975013;28;20023;-44
2021/06/07 09:35:16;;;;;;;1.40;0.50;;;;;;;;;;4975135;28;20034;-43
2021/06/07 09:38:03;;;;;;;0.45;0.35;;;;;;;;;;4975010;28;20471;-43
2021/06/07 09:40:30;;;;;;;1.08;0.30;;;;;;;;;;4975483;28;20023;-43
2021/06/07 09:43:01;;;;;;;2.65;0.40;;;;;;;;;;4974945;28;20023;-44
2021/06/07 09:45:47;;;;;;;1.15;0.30;;;;;;;;;;4974781;28;20062;-43
2021/06/07 09:48:15;;;;;;;1.08;0.28;;;;;;;;;;4974673;28;20034;-43
2021/06/07 09:50:59;;;;;;;0.50;0.30;;;;;;;;;;4974606;28;20034;-43
2021/06/07 09:53:45;;;;;;;1.20;0.52;;;;;;;;;;4974529;28;20038;-44
2021/06/07 09:56:12;;;;;;;1.27;0.30;;;;;;;;;;4974460;28;20042;-44
2021/06/07 09:58:40;;;;;;;1.27;0.45;;;;;;;;;;4974588;28;20019;-43
2021/06/07 10:01:15;;;;;;;1.95;0.40;;;;;;;;;;4974859;28;20085;-44
2021/06/07 10:03:43;;;;;;;1.50;0.50;;;;;;;;;;4974234;28;20019;-44
2021/06/07 10:06:29;;;;;;;0.80;0.40;;;;;;;;;;4974593;28;20057;-43
2021/06/07 10:08:59;;;;;;;1.23;0.45;;;;;;;;;;4974273;28;20029;-44
2021/06/07 10:11:33;;;;;;;1.10;0.50;;;;;;;;;;4974775;28;20399;-43
2021/06/07 10:14:13;;;;;;;1.00;0.35;;;;;;;;;;4974124;28;20057;-45
2021/06/07 10:16:54;;;;;;;2.00;0.40;;;;;;;;;;4974488;28;20022;-43
2021/06/07 10:19:31;;;;;;;1.30;0.40;;;;;;;;;;4973918;28;20352;-43
2021/06/07 10:21:58;;;;;;;0.57;0.35;;;;;;;;;;4974315;28;20121;-43
2021/06/07 10:24:25;;;;;;;1.15;0.47;;;;;;;;;;4973838;28;20105;-43
2021/06/07 10:26:56;;;;;;;1.35;0.32;;;;;;;;;;4974175;28;20019;-43
2021/06/07 10:29:23;;;;;;;0.50;0.32;;;;;;;;;;4973906;28;20027;-45
2021/06/07 10:31:50;;;;;;;0.68;0.50;;;;;;;;;;4974153;28;20514;-43
2021/06/07 10:34:17;;;;;;;2.15;0.52;;;;;;;;;;4973980;28;20205;-44
2021/06/07 10:36:49;;;;;;;0.45;0.32;;;;;;;;;;4974073;28;20030;-43
2021/06/07 10:39:20;;;;;;;1.15;0.40;;;;;;;;;;4956494;28;20026;-42
2021/06/07 10:41:59;;;;;;;0.68;0.40;;;;;;;;;;4974205;28;20034;-43
2021/06/07 10:44:36;;;;;;;1.23;0.47;;;;;;;;;;4973584;28;20077;-43
2021/06/07 10:47:05;;;;;;;1.33;0.40;;;;;;;;;;4973914;28;20029;-43
2021/06/07 10:49:40;;;;;;;4.10;0.75;;;;;;;;;;4973483;28;20033;-43
2021/06/07 10:52:07;;;;;;;1.67;0.50;;;;;;;;;;4974069;28;20379;-43
2021/06/07 10:54:35;;;;;;;3.00;0.45;;;;;;;;;;4974082;28;20031;-44
2021/06/07 10:57:20;;;;;;;1.45;0.30;;;;;;;;;;4973171;28;20030;-44
2021/06/07 10:59:49;;;;;;;1.23;0.50;;;;;;;;;;4973662;28;20537;-43
2021/06/07 11:02:17;;;;;;;0.52;0.40;;;;;;;;;;4972949;28;20026;-43
2021/06/07 11:04:44;;;;;;;1.38;0.50;;;;;;;;;;4973735;28;20375;-44
2021/06/07 11:07:19;;;;;;;1.02;0.40;;;;;;;;;;4973138;28;20033;-43
2021/06/07 11:10:04;;;;;;;0.98;0.40;;;;;;;;;;4973377;28;20415;-43
2021/06/07 11:12:33;;;;;;;0.90;0.43;;;;;;;;;;4973133;28;20430;-43
2021/06/07 11:15:10;;;;;;;0.75;0.40;;;;;;;;;;4973505;28;20106;-43
2021/06/07 11:17:37;;;;;;;2.35;0.60;;;;;;;;;;4972995;28;20034;-43
2021/06/07 11:20:05;;;;;;;1.17;0.30;;;;;;;;;;4973305;28;20027;-43
2021/06/07 11:22:50;;;;;;;2.20;0.50;;;;;;;;;;4972882;28;20034;-43
2021/06/07 11:25:19;;;;;;;0.90;0.40;;;;;;;;;;4973186;28;20045;-43
2021/06/07 11:27:46;;;;;;;1.33;0.47;;;;;;;;;;4972605;28;20034;-43
2021/06/07 11:30:15;;;;;;;0.82;0.40;;;;;;;;;;4973461;28;20018;-44
2021/06/07 11:32:43;;;;;;;0.77;0.40;;;;;;;;;;4972476;28;20065;-43
2021/06/07 11:35:29;;;;;;;1.10;0.50;;;;;;;;;;4973201;28;20030;-44
2021/06/07 11:38:16;;;;;;;0.65;0.40;;;;;;;;;;4972505;28;20033;-44
2021/06/07 11:40:43;;;;;;;0.80;0.50;;;;;;;;;;4973066;28;20031;-44
2021/06/07 11:43:10;;;;;;;0.88;0.50;;;;;;;;;;4972684;28;20054;-43
2021/06/07 11:45:41;;;;;;;1.05;0.47;;;;;;;;;;4972961;28;20027;-44
2021/06/07 11:48:08;;;;;;;2.35;0.70;;;;;;;;;;4972486;28;20073;-43
2021/06/07 11:50:41;;;;;;;1.40;0.50;;;;;;;;;;4973118;28;20033;-44
2021/06/07 11:53:14;;;;;;;1.83;0.50;;;;;;;;;;4972622;28;20082;-43
2021/06/07 11:55:41;;;;;;;1.15;0.50;;;;;;;;;;4972866;28;20462;-44
2021/06/07 11:58:29;;;;;;;2.42;0.68;;;;;;;;;;4972032;28;20049;-44
2021/06/07 12:00:59;;;;;;;2.17;0.55;;;;;;;;;;4969719;28;20031;-45
2021/06/07 12:03:27;;;;;;;0.47;0.38;;;;;;;;;;4971924;28;20027;-47
2021/06/07 12:05:54;;;;;;;2.30;0.50;;;;;;;;;;4971220;28;20050;-46
2021/06/07 12:08:22;;;;;;;1.17;0.45;;;;;;;;;;4970144;28;20019;-46
2021/06/07 12:10:51;;;;;;;0.60;0.40;;;;;;;;;;4969821;28;20065;-45
2021/06/07 12:13:21;;;;;;;1.17;0.50;;;;;;;;;;4971710;28;20035;-46
2021/06/07 12:15:53;;;;;;;1.33;0.50;;;;;;;;;;4976278;28;20078;-45
2021/06/07 12:18:38;;;;;;;1.98;0.40;;;;;;;;;;4973778;28;20722;-46
2021/06/07 12:21:10;;;;;;;1.58;0.55;;;;;;;;;;4974237;28;20027;-48
2021/06/07 12:23:44;;;;;;;1.38;0.50;;;;;;;;;;4975065;28;20042;-47
2021/06/07 12:29:03;;;;;;;;;;;;;;;;;;4976387;28;20045;-46
2021/06/07 12:31:31;;;;;;;0.88;0.43;;;;;;;;;;4945320;28;20008;-45
2021/06/07 12:33:57;;;;;;;2.15;0.68;;;;;;;;;;4974626;28;20043;-45
2021/06/07 12:36:34;;;;;;;2.10;0.70;;;;;;;;;;4975628;28;20023;-45
2021/06/07 12:39:01;;;;;;;3.40;0.60;;;;;;;;;;4973992;28;20023;-44
2021/06/07 12:41:28;;;;;;;4.53;0.70;;;;;;;;;;4974135;28;20053;-41
2021/06/07 12:43:55;;;;;;;5.55;0.77;;;;;;;;;;4973890;28;20018;-45
2021/06/07 12:46:22;;;;;;;1.08;0.50;;;;;;;;;;4975135;28;20031;-42
2021/06/07 12:48:49;;;;;;;0.95;0.40;;;;;;;;;;4950120;28;20400;-44
2021/06/07 12:51:23;;;;;;;5.80;0.70;;;;;;;;;;4974504;28;20031;-45
2021/06/07 12:53:55;;;;;;;3.13;0.90;;;;;;;;;;4974652;28;20637;-41
2021/06/07 12:56:22;;;;;;;;;;;;;;;;;;4974602;28;20482;-41
2021/06/07 12:58:50;;;;;;;5.38;0.70;;;;;;;;;;4975484;28;19906;-47
2021/06/07 13:01:18;;;;;;;1.80;0.70;;;;;;;;;;4975057;28;20035;-45
2021/06/07 13:03:57;;;;;;;1.75;0.65;;;;;;;;;;4975398;28;20387;-45
2021/06/07 13:06:25;;;;;;;3.33;0.50;;;;;;;;;;4973108;28;20031;-43
2021/06/07 13:09:01;;;;;;;7.22;0.82;;;;;;;;;;4974666;28;20088;-46
2021/06/07 13:11:36;;;;;;;3.95;0.60;;;;;;;;;;4974794;28;20031;-46
2021/06/07 13:14:04;;;;;;;2.75;0.82;;;;;;;;;;4975176;28;20054;-46
2021/06/07 13:16:32;;;;;;;4.47;0.85;;;;;;;;;;4974672;28;20133;-43
2021/06/07 13:19:06;;;;;;;5.20;0.95;;;;;;;;;;4972269;28;20034;-43
2021/06/07 13:21:43;;;;;;;5.50;0.75;;;;;;;;;;4973130;28;20081;-45
2021/06/07 13:24:12;;;;;;;2.95;0.63;;;;;;;;;;4975313;28;20046;-55
2021/06/07 13:26:59;;;;;;;4.72;0.60;;;;;;;;;;4974242;28;20027;-49
2021/06/07 13:29:29;;;;;;;4.63;0.70;;;;;;;;;;4974611;28;20046;-59
2021/06/07 13:32:01;;;;;;;4.57;0.93;;;;;;;;;;4972541;28;20476;-44
2021/06/07 13:34:31;;;;;;;6.13;0.98;;;;;;;;;;4974373;28;20038;-47
2021/06/07 13:37:10;;;;;;;4.45;0.65;;;;;;;;;;4974458;28;20018;-47
2021/06/07 13:39:37;;;;;;;7.78;0.85;;;;;;;;;;4974773;28;20575;-47
2021/06/07 13:42:05;;;;;;;3.80;0.63;;;;;;;;;;4972330;28;20031;-48
2021/06/07 13:45:07;;;;;;;4.80;0.77;;;;;;;;;;4973411;28;20388;-46
2021/06/07 13:47:35;;;;;;;6.60;0.80;;;;;;;;;;4894757;29;20599;-47
2021/06/07 13:50:23;;;;;;;5.57;0.90;;;;;;;;;;4952541;28;20072;-47
2021/06/07 13:52:54;;;;;;;7.70;0.80;;;;;;;;;;4960281;28;20411;-48
2021/06/07 13:55:22;;;;;;;3.72;0.80;;;;;;;;;;4968170;28;20041;-46
2021/06/07 13:57:53;;;;;;;6.47;0.80;;;;;;;;;;4973571;28;20579;-46
2021/06/07 14:00:21;;;;;;;6.53;0.90;;;;;;;;;;4973640;28;20073;-46
2021/06/07 14:02:48;;;;;;;5.75;0.90;;;;;;;;;;4966356;28;20027;-47
2021/06/07 14:05:18;;;;;;;5.03;1.05;;;;;;;;;;4974190;28;20015;-47
2021/06/07 14:07:45;;;;;;;6.40;0.98;;;;;;;;;;4955741;28;20441;-46
2021/06/07 14:10:13;;;;;;;7.70;0.93;;;;;;;;;;4960793;28;20022;-46
2021/06/07 14:12:40;;;;;;;3.30;0.80;;;;;;;;;;4973979;28;20018;-47
2021/06/07 14:15:08;;;;;;;2.38;0.60;;;;;;;;;;4962352;28;20027;-46
2021/06/07 14:17:35;;;;;;;3.53;0.75;;;;;;;;;;4971878;28;20030;-46
2021/06/07 14:20:04;;;;;;;4.65;0.80;;;;;;;;;;4973540;28;20035;-45
2021/06/07 14:25:18;;;;;;;3.80;0.90;;;;;;;;;;4967584;28;20170;-47
2021/06/07 14:27:45;;;;;;;5.18;0.70;;;;;;;;;;4973602;28;20022;-46
2021/06/07 14:30:12;;;;;;;1.45;0.73;;;;;;;;;;4967602;28;20037;-47
2021/06/07 14:32:39;;;;;;;5.45;0.90;;;;;;;;;;4960644;28;20038;-44
2021/06/07 14:35:07;;;;;;;9.82;0.90;;;;;;;;;;4966668;28;20035;-45
2021/06/07 14:37:34;;;;;;;10.00;0.70;;;;;;;;;;4968028;28;20082;-45
2021/06/07 14:40:01;;;;;;;8.48;1.20;;;;;;;;;;4963658;28;20033;-45
2021/06/07 14:42:28;;;;;;;4.45;0.85;;;;;;;;;;4955633;28;20023;-45
2021/06/07 14:44:55;;;;;;;4.53;0.75;;;;;;;;;;4961068;28;20491;-45
2021/06/07 14:47:22;;;;;;;3.60;0.80;;;;;;;;;;4956371;28;20034;-46
2021/06/07 14:49:49;;;;;;;2.53;0.85;;;;;;;;;;4972185;28;20042;-45
2021/06/07 14:52:16;;;;;;;4.88;1.25;;;;;;;;;;4966436;28;20023;-45
2021/06/07 14:54:43;;;;;;;3.55;0.93;;;;;;;;;;4969302;28;20066;-45
2021/06/07 14:57:11;;;;;;;7.40;1.25;;;;;;;;;;4965963;28;20085;-43
2021/06/07 14:59:38;;;;;;;2.83;0.98;;;;;;;;;;4960159;28;20033;-41
2021/06/07 15:02:05;;;;;;;7.53;1.17;;;;;;;;;;4954878;28;20484;-40